createdAt,value
2022-11-05T00:01:03.670Z,100.00
2022-11-05T00:03:44.746Z,100.00
2022-11-05T00:06:28.052Z,100.00
2022-11-05T00:09:09.177Z,100.00
2022-11-05T00:11:50.182Z,100.00
2022-11-05T00:14:31.098Z,100.00
2022-11-05T00:16:53.564Z,100.00
2022-11-05T00:19:16.827Z,100.00
2022-11-05T00:21:57.755Z,100.00
2022-11-05T00:24:38.680Z,100.00
2022-11-05T00:27:01.102Z,100.00
2022-11-05T00:29:23.458Z,100.00
2022-11-05T00:31:45.895Z,100.00
2022-11-05T00:34:08.333Z,100.00
2022-11-05T00:36:30.742Z,100.00
2022-11-05T00:38:53.111Z,100.00
2022-11-05T00:41:15.480Z,100.00
2022-11-05T00:43:56.526Z,100.00
2022-11-05T00:46:18.877Z,100.00
2022-11-05T00:49:00.140Z,100.00
2022-11-05T00:51:22.688Z,100.00
2022-11-05T00:53:45.130Z,100.00
2022-11-05T00:56:07.621Z,100.00
2022-11-05T00:58:30.004Z,100.00
2022-11-05T01:00:54.600Z,100.00
2022-11-05T01:03:18.486Z,100.00
2022-11-05T01:05:46.636Z,100.00
2022-11-05T01:08:09.929Z,100.00
2022-11-05T01:10:32.276Z,100.00
2022-11-05T01:12:54.670Z,100.00
2022-11-05T01:15:18.133Z,100.00
2022-11-05T01:17:40.444Z,100.00
2022-11-05T01:20:02.873Z,100.00
2022-11-05T01:22:25.241Z,100.00
2022-11-05T01:24:47.648Z,100.00
2022-11-05T01:27:10.037Z,100.00
2022-11-05T01:29:32.384Z,100.00
2022-11-05T01:31:54.734Z,100.00
2022-11-05T01:34:17.246Z,100.00
2022-11-05T01:36:39.645Z,100.00
2022-11-05T01:39:02.056Z,100.00
2022-11-05T01:41:24.552Z,100.00
2022-11-05T01:43:56.482Z,100.00
2022-11-05T01:46:23.896Z,100.00
2022-11-05T01:48:46.283Z,100.00
2022-11-05T01:51:14.317Z,100.00
2022-11-05T01:54:07.036Z,100.00
2022-11-05T01:56:34.695Z,100.00
2022-11-05T01:59:28.904Z,100.00
2022-11-05T02:01:51.399Z,100.00
2022-11-05T02:04:26.071Z,100.00
2022-11-05T02:06:48.453Z,100.00
2022-11-05T02:09:24.627Z,100.00
2022-11-05T02:11:47.289Z,100.00
2022-11-05T02:14:09.702Z,100.00
2022-11-05T02:16:47.969Z,100.00
2022-11-05T02:19:47.655Z,100.00
2022-11-05T02:22:19.239Z,100.00
2022-11-05T02:25:28.533Z,100.00
2022-11-05T02:28:30.251Z,100.00
2022-11-05T02:31:40.384Z,100.00
2022-11-05T02:35:09.786Z,100.00
2022-11-05T02:37:51.922Z,100.00
2022-11-05T02:40:41.339Z,100.00
2022-11-05T02:43:28.283Z,100.00
2022-11-05T02:46:20.769Z,100.00
2022-11-05T02:49:01.675Z,100.00
2022-11-05T02:51:52.996Z,100.00
2022-11-05T02:55:01.775Z,100.00
2022-11-05T02:57:24.488Z,100.00
2022-11-05T02:59:46.913Z,100.00
2022-11-05T03:02:09.415Z,100.00
2022-11-05T03:04:32.478Z,100.00
2022-11-05T03:07:22.801Z,100.00
2022-11-05T03:09:57.005Z,100.00
2022-11-05T03:12:58.402Z,100.00
2022-11-05T03:15:49.231Z,100.00
2022-11-05T03:18:51.318Z,100.00
2022-11-05T03:21:34.188Z,100.00
2022-11-05T03:24:08.146Z,100.00
2022-11-05T03:26:40.447Z,100.00
2022-11-05T03:29:06.976Z,100.00
2022-11-05T03:31:29.563Z,100.00
2022-11-05T03:33:52.548Z,100.00
2022-11-05T03:36:21.072Z,100.00
2022-11-05T03:38:44.564Z,100.00
2022-11-05T03:41:12.087Z,100.00
2022-11-05T03:43:40.792Z,100.00
2022-11-05T03:46:09.791Z,100.00
2022-11-05T03:48:32.436Z,100.00
2022-11-05T03:51:27.680Z,100.00
2022-11-05T03:53:54.431Z,100.00
2022-11-05T03:56:27.778Z,100.00
2022-11-05T03:58:54.670Z,100.00
2022-11-05T04:01:20.297Z,100.00
2022-11-05T04:03:42.761Z,100.00
2022-11-05T04:06:25.144Z,100.00
2022-11-05T04:09:06.077Z,100.00
2022-11-05T04:11:47.227Z,100.00
2022-11-05T04:14:09.607Z,100.00
2022-11-05T04:16:50.759Z,100.00
2022-11-05T04:19:13.117Z,100.00
2022-11-05T04:21:54.205Z,100.00
2022-11-05T04:24:16.603Z,100.00
2022-11-05T04:26:41.943Z,100.00
2022-11-05T04:29:22.844Z,100.00
2022-11-05T04:31:45.344Z,100.00
2022-11-05T04:34:07.749Z,100.00
2022-11-05T04:36:30.123Z,100.00
2022-11-05T04:38:52.557Z,100.00
2022-11-05T04:41:16.181Z,100.00
2022-11-05T04:43:38.597Z,100.00
2022-11-05T04:46:01.011Z,100.00
2022-11-05T04:48:23.364Z,100.00
2022-11-05T04:50:45.846Z,100.00
2022-11-05T04:53:08.399Z,100.00
2022-11-05T04:55:31.355Z,100.00
2022-11-05T04:57:54.395Z,100.00
2022-11-05T05:00:17.753Z,100.00
2022-11-05T05:02:40.005Z,100.00
2022-11-05T05:05:02.385Z,100.00
2022-11-05T05:07:24.765Z,100.00
2022-11-05T05:09:47.172Z,100.00
2022-11-05T05:12:09.535Z,100.00
2022-11-05T05:14:31.956Z,100.00
2022-11-05T05:16:54.331Z,100.00
2022-11-05T05:19:16.717Z,100.00
2022-11-05T05:21:39.244Z,100.00
2022-11-05T05:24:01.827Z,100.00
2022-11-05T05:26:24.245Z,100.00
2022-11-05T05:28:46.593Z,100.00
2022-11-05T05:31:09.363Z,100.00
2022-11-05T05:33:31.686Z,100.00
2022-11-05T05:35:54.410Z,100.00
2022-11-05T05:38:16.742Z,100.00
2022-11-05T05:40:39.103Z,100.00
2022-11-05T05:43:01.459Z,100.00
2022-11-05T05:45:23.873Z,100.00
2022-11-05T05:47:46.233Z,100.00
2022-11-05T05:50:08.749Z,100.00
2022-11-05T05:52:31.108Z,100.00
2022-11-05T05:54:53.486Z,100.00
2022-11-05T05:57:15.863Z,100.00
2022-11-05T05:59:38.297Z,100.00
2022-11-05T06:02:00.866Z,100.00
2022-11-05T06:04:23.289Z,100.00
2022-11-05T06:06:46.952Z,100.00
2022-11-05T06:09:09.330Z,100.00
2022-11-05T06:11:31.785Z,100.00
2022-11-05T06:13:54.105Z,100.00
2022-11-05T06:16:16.580Z,100.00
2022-11-05T06:18:38.914Z,100.00
2022-11-05T06:21:03.093Z,100.00
2022-11-05T06:23:25.427Z,100.00
2022-11-05T06:25:47.762Z,100.00
2022-11-05T06:28:10.088Z,100.00
2022-11-05T06:30:32.424Z,100.00
2022-11-05T06:32:54.890Z,100.00
2022-11-05T06:35:17.388Z,100.00
2022-11-05T06:37:19.439Z,100.00
2022-11-05T06:39:22.342Z,100.00
2022-11-05T06:41:24.974Z,100.00
2022-11-05T06:43:28.396Z,100.00
2022-11-05T06:45:31.194Z,100.00
2022-11-05T06:47:34.220Z,100.00
2022-11-05T06:49:36.438Z,100.00
2022-11-05T06:51:39.169Z,100.00
2022-11-05T06:53:41.996Z,100.00
2022-11-05T06:55:45.022Z,100.00
2022-11-05T06:57:47.589Z,100.00
2022-11-05T06:59:49.607Z,100.00
2022-11-05T07:02:11.686Z,100.00
2022-11-05T07:04:32.417Z,100.00
2022-11-05T07:06:54.734Z,100.00
2022-11-05T07:09:17.085Z,100.00
2022-11-05T07:11:39.423Z,100.00
2022-11-05T07:14:01.814Z,100.00
2022-11-05T07:16:24.150Z,100.00
2022-11-05T07:18:46.511Z,100.00
2022-11-05T07:21:08.865Z,100.00
2022-11-05T07:23:31.209Z,100.00
2022-11-05T07:25:53.550Z,100.00
2022-11-05T07:28:15.940Z,100.00
2022-11-05T07:30:38.818Z,100.00
2022-11-05T07:33:01.451Z,100.00
2022-11-05T07:35:23.885Z,100.00
2022-11-05T07:37:47.645Z,100.00
2022-11-05T07:40:11.585Z,100.00
2022-11-05T07:42:35.386Z,100.00
2022-11-05T07:44:57.727Z,100.00
2022-11-05T07:47:20.070Z,100.00
2022-11-05T07:49:42.406Z,100.00
2022-11-05T07:52:05.203Z,100.00
2022-11-05T07:54:27.712Z,100.00
2022-11-05T07:56:50.052Z,100.00
2022-11-05T07:59:12.379Z,100.00
2022-11-05T08:01:34.913Z,100.00
2022-11-05T08:03:57.367Z,100.00
2022-11-05T08:06:19.690Z,100.00
2022-11-05T08:08:42.033Z,100.00
2022-11-05T08:11:09.559Z,100.00
2022-11-05T08:13:31.952Z,100.00
2022-11-05T08:15:56.808Z,100.00
2022-11-05T08:18:19.177Z,100.00
2022-11-05T08:20:42.273Z,100.00
2022-11-05T08:23:05.095Z,100.00
2022-11-05T08:25:27.757Z,100.00
2022-11-05T08:28:00.185Z,100.00
2022-11-05T08:30:22.608Z,100.00
2022-11-05T08:32:44.925Z,100.00
2022-11-05T08:35:07.706Z,100.00
2022-11-05T08:37:30.122Z,100.00
2022-11-05T08:39:52.470Z,100.00
2022-11-05T08:42:14.820Z,100.00
2022-11-05T08:44:37.169Z,100.00
2022-11-05T08:46:59.669Z,100.00
2022-11-05T08:49:22.085Z,100.00
2022-11-05T08:51:45.131Z,100.00
2022-11-05T08:54:07.685Z,100.00
2022-11-05T08:56:30.072Z,100.00
2022-11-05T08:58:52.461Z,100.00
2022-11-05T09:01:14.968Z,100.00
2022-11-05T09:03:37.317Z,100.00
2022-11-05T09:05:59.674Z,100.00
2022-11-05T09:08:22.072Z,100.00
2022-11-05T09:10:45.526Z,100.00
2022-11-05T09:13:11.725Z,100.00
2022-11-05T09:15:37.244Z,100.00
2022-11-05T09:18:00.015Z,100.00
2022-11-05T09:20:22.691Z,100.00
2022-11-05T09:22:46.365Z,100.00
2022-11-05T09:25:09.049Z,100.00
2022-11-05T09:27:31.931Z,100.00
2022-11-05T09:29:54.276Z,100.00
2022-11-05T09:32:19.254Z,100.00
2022-11-05T09:34:44.403Z,100.00
2022-11-05T09:37:06.741Z,100.00
2022-11-05T09:39:29.111Z,100.00
2022-11-05T09:41:53.866Z,100.00
2022-11-05T09:44:28.352Z,100.00
2022-11-05T09:46:58.366Z,100.00
2022-11-05T09:49:35.428Z,100.00
2022-11-05T09:51:58.391Z,100.00
2022-11-05T09:54:00.603Z,99.43
2022-11-05T09:56:03.026Z,99.67
2022-11-05T09:58:39.051Z,98.93
2022-11-05T10:00:42.021Z,99.42
2022-11-05T10:02:59.979Z,99.17
2022-11-05T10:05:09.906Z,98.38
2022-11-05T10:07:16.760Z,99.34
2022-11-05T10:09:47.714Z,98.70
2022-11-05T10:12:03.236Z,99.24
2022-11-05T10:14:23.085Z,98.83
2022-11-05T10:16:34.755Z,99.01
2022-11-05T10:18:41.025Z,99.79
2022-11-05T10:20:44.381Z,98.53
2022-11-05T10:22:49.656Z,98.68
2022-11-05T10:24:52.849Z,98.71
2022-11-05T10:26:55.070Z,98.16
2022-11-05T10:28:57.245Z,97.77
2022-11-05T10:31:06.315Z,97.98
2022-11-05T10:33:10.699Z,98.33
2022-11-05T10:35:18.671Z,97.88
2022-11-05T10:37:27.157Z,97.66
2022-11-05T10:39:30.209Z,98.06
2022-11-05T10:42:32.445Z,97.75
2022-11-05T10:44:48.923Z,97.80
2022-11-05T10:47:33.889Z,98.51
2022-11-05T10:49:42.248Z,98.88
2022-11-05T10:51:46.726Z,98.78
2022-11-05T10:54:04.811Z,99.18
2022-11-05T10:56:40.106Z,99.46
2022-11-05T10:58:42.760Z,99.78
2022-11-05T11:01:07.055Z,99.38
2022-11-05T11:03:49.726Z,99.32
2022-11-05T11:05:57.768Z,99.78
2022-11-05T11:08:12.303Z,99.72
2022-11-05T11:10:24.788Z,99.00
2022-11-05T11:12:35.636Z,99.43
2022-11-05T11:14:40.580Z,98.65
2022-11-05T11:16:48.456Z,98.15
2022-11-05T11:19:00.899Z,98.79
2022-11-05T11:21:23.275Z,98.91
2022-11-05T11:23:26.122Z,99.19
2022-11-05T11:25:41.822Z,98.83
2022-11-05T11:27:44.717Z,99.17
2022-11-05T11:30:00.326Z,98.76
2022-11-05T11:32:02.818Z,98.75
2022-11-05T11:34:07.169Z,99.02
2022-11-05T11:36:10.799Z,99.02
2022-11-05T11:38:15.076Z,99.00
2022-11-05T11:40:46.117Z,98.66
2022-11-05T11:42:57.484Z,98.80
2022-11-05T11:45:04.743Z,98.98
2022-11-05T11:47:16.821Z,99.56
2022-11-05T11:49:50.331Z,99.26
2022-11-05T11:51:55.171Z,100.00
2022-11-05T11:53:59.363Z,99.65
2022-11-05T11:56:18.460Z,99.29
2022-11-05T11:58:35.259Z,100.00
2022-11-05T12:00:41.990Z,100.00
2022-11-05T12:03:16.019Z,100.00
2022-11-05T12:05:39.625Z,100.00
2022-11-05T12:07:49.530Z,100.00
2022-11-05T12:10:24.122Z,100.00
2022-11-05T12:13:01.585Z,100.00
2022-11-05T12:15:38.254Z,100.00
2022-11-05T12:18:06.288Z,100.00
2022-11-05T12:20:11.791Z,100.00
2022-11-05T12:22:21.763Z,100.00
2022-11-05T12:25:16.429Z,100.00
2022-11-05T12:27:39.654Z,100.00
2022-11-05T12:30:02.140Z,100.00
2022-11-05T12:32:32.419Z,100.00
2022-11-05T12:34:53.276Z,100.00
2022-11-05T12:37:30.876Z,100.00
2022-11-05T12:39:55.590Z,100.00
2022-11-05T12:42:42.740Z,100.00
2022-11-05T12:45:04.606Z,100.00
2022-11-05T12:47:41.792Z,100.00
2022-11-05T12:50:36.007Z,100.00
2022-11-05T12:53:20.963Z,100.00
2022-11-05T12:55:25.522Z,100.00
2022-11-05T12:57:29.641Z,100.00
2022-11-05T12:59:36.422Z,100.00
2022-11-05T13:01:43.711Z,100.00
2022-11-05T13:03:58.722Z,100.00
2022-11-05T13:06:22.235Z,100.00
2022-11-05T13:08:46.701Z,100.00
2022-11-05T13:11:11.703Z,100.00
2022-11-05T13:13:31.758Z,100.00
2022-11-05T13:15:43.286Z,100.00
2022-11-05T13:17:55.614Z,100.00
2022-11-05T13:20:34.363Z,100.00
2022-11-05T13:22:46.781Z,100.00
2022-11-05T13:24:51.601Z,100.00
2022-11-05T13:27:38.700Z,100.00
2022-11-05T13:30:02.087Z,100.00
2022-11-05T13:32:38.848Z,100.00
2022-11-05T13:34:41.249Z,100.00
2022-11-05T13:37:11.677Z,100.00
2022-11-05T13:39:31.893Z,100.00
2022-11-05T13:41:47.034Z,100.00
2022-11-05T13:44:02.685Z,100.00
2022-11-05T13:46:34.970Z,100.00
2022-11-05T13:49:21.299Z,100.00
2022-11-05T13:51:33.580Z,100.00
2022-11-05T13:53:43.972Z,100.00
2022-11-05T13:55:55.178Z,100.00
2022-11-05T13:58:33.430Z,100.00
2022-11-05T14:01:05.729Z,100.00
2022-11-05T14:03:18.384Z,100.00
2022-11-05T14:05:33.547Z,100.00
2022-11-05T14:07:38.636Z,100.00
2022-11-05T14:09:40.935Z,100.00
2022-11-05T14:11:51.363Z,100.00
2022-11-05T14:14:01.353Z,100.00
2022-11-05T14:16:07.833Z,100.00
2022-11-05T14:18:37.813Z,100.00
2022-11-05T14:20:46.441Z,100.00
2022-11-05T14:22:49.271Z,100.00
2022-11-05T14:24:51.945Z,100.00
2022-11-05T14:27:00.601Z,100.00
2022-11-05T14:29:05.458Z,100.00
2022-11-05T14:31:19.726Z,100.00
2022-11-05T14:33:25.390Z,100.00
2022-11-05T14:35:38.309Z,100.00
2022-11-05T14:37:56.932Z,100.00
2022-11-05T14:40:22.733Z,99.76
2022-11-05T14:42:30.311Z,99.64
2022-11-05T14:44:35.108Z,99.66
2022-11-05T14:46:42.294Z,99.32
2022-11-05T14:48:52.254Z,99.31
2022-11-05T14:50:54.753Z,99.26
2022-11-05T14:52:59.868Z,98.51
2022-11-05T14:55:02.517Z,99.17
2022-11-05T14:57:05.151Z,98.76
2022-11-05T14:59:53.990Z,98.90
2022-11-05T15:02:04.736Z,98.82
2022-11-05T15:04:33.787Z,99.07
2022-11-05T15:06:36.758Z,99.00
2022-11-05T15:08:57.424Z,99.09
2022-11-05T15:11:13.088Z,99.27
2022-11-05T15:13:31.842Z,98.43
2022-11-05T15:15:44.823Z,98.15
2022-11-05T15:18:01.714Z,97.85
2022-11-05T15:20:08.751Z,97.99
2022-11-05T15:22:26.882Z,97.97
2022-11-05T15:24:29.808Z,97.95
2022-11-05T15:26:53.738Z,97.42
2022-11-05T15:28:56.006Z,97.41
2022-11-05T15:31:26.923Z,97.00
2022-11-05T15:33:30.555Z,97.59
2022-11-05T15:35:38.739Z,97.12
2022-11-05T15:37:41.416Z,96.89
2022-11-05T15:39:45.369Z,96.88
2022-11-05T15:41:47.442Z,96.70
2022-11-05T15:43:50.290Z,96.29
2022-11-05T15:46:20.037Z,96.90
2022-11-05T15:48:23.004Z,97.06
2022-11-05T15:50:25.598Z,96.79
2022-11-05T15:52:42.355Z,96.64
2022-11-05T15:54:45.041Z,96.39
2022-11-05T15:56:54.223Z,96.08
2022-11-05T15:59:02.044Z,95.86
2022-11-05T16:01:04.376Z,96.27
2022-11-05T16:03:29.440Z,95.72
2022-11-05T16:05:34.838Z,95.59
2022-11-05T16:07:41.959Z,95.85
2022-11-05T16:09:58.146Z,95.50
2022-11-05T16:12:19.595Z,95.40
2022-11-05T16:14:22.079Z,94.95
2022-11-05T16:16:32.570Z,95.11
2022-11-05T16:18:38.614Z,95.10
2022-11-05T16:20:41.390Z,95.13
2022-11-05T16:22:48.542Z,95.23
2022-11-05T16:24:50.784Z,95.33
2022-11-05T16:27:04.181Z,95.03
2022-11-05T16:29:18.375Z,95.21
2022-11-05T16:31:31.089Z,95.08
2022-11-05T16:33:45.324Z,95.42
2022-11-05T16:35:49.263Z,95.57
2022-11-05T16:37:52.701Z,95.69
2022-11-05T16:39:55.985Z,95.67
2022-11-05T16:41:58.182Z,95.47
2022-11-05T16:44:01.261Z,95.62
2022-11-05T16:46:03.892Z,95.78
2022-11-05T16:48:06.604Z,95.97
2022-11-05T16:50:24.997Z,96.11
2022-11-05T16:52:27.846Z,96.41
2022-11-05T16:54:30.708Z,96.31
2022-11-05T16:56:34.153Z,96.24
2022-11-05T16:58:36.765Z,96.67
2022-11-05T17:00:39.301Z,96.88
2022-11-05T17:02:41.784Z,96.79
2022-11-05T17:04:44.706Z,97.59
2022-11-05T17:06:48.188Z,97.28
2022-11-05T17:08:50.779Z,97.50
2022-11-05T17:10:53.431Z,97.49
2022-11-05T17:12:56.094Z,97.63
2022-11-05T17:14:58.841Z,98.31
2022-11-05T17:17:01.589Z,98.19
2022-11-05T17:19:04.527Z,98.37
2022-11-05T17:21:07.403Z,98.11
2022-11-05T17:23:15.232Z,98.11
2022-11-05T17:25:17.989Z,98.34
2022-11-05T17:27:20.282Z,98.67
2022-11-05T17:29:22.457Z,98.43
2022-11-05T17:31:24.927Z,98.52
2022-11-05T17:33:27.652Z,98.80
2022-11-05T17:35:30.044Z,98.51
2022-11-05T17:37:33.800Z,98.16
2022-11-05T17:39:37.320Z,98.45
2022-11-05T17:41:39.669Z,98.56
2022-11-05T17:44:00.707Z,98.69
2022-11-05T17:46:12.672Z,98.77
2022-11-05T17:48:24.686Z,98.76
2022-11-05T17:50:47.908Z,99.06
2022-11-05T17:52:50.014Z,99.13
2022-11-05T17:54:52.880Z,99.24
2022-11-05T17:56:56.011Z,98.95
2022-11-05T17:59:00.128Z,99.17
2022-11-05T18:01:02.377Z,98.87
2022-11-05T18:03:16.935Z,99.35
2022-11-05T18:05:21.938Z,99.27
2022-11-05T18:07:24.509Z,99.30
2022-11-05T18:09:27.087Z,99.45
2022-11-05T18:11:29.499Z,99.67
2022-11-05T18:13:48.127Z,99.64
2022-11-05T18:15:54.321Z,99.82
2022-11-05T18:17:56.707Z,99.33
2022-11-05T18:19:59.332Z,99.68
2022-11-05T18:22:02.285Z,99.92
2022-11-05T18:24:05.555Z,100.00
2022-11-05T18:26:12.193Z,99.77
2022-11-05T18:28:14.835Z,100.00
2022-11-05T18:30:17.203Z,100.00
2022-11-05T18:32:20.288Z,100.00
2022-11-05T18:34:22.298Z,99.95
2022-11-05T18:36:27.723Z,100.00
2022-11-05T18:38:29.942Z,100.00
2022-11-05T18:40:32.632Z,100.00
2022-11-05T18:42:35.733Z,100.00
2022-11-05T18:44:39.662Z,100.00
2022-11-05T18:46:57.707Z,100.00
2022-11-05T18:49:01.163Z,100.00
2022-11-05T18:51:14.890Z,100.00
2022-11-05T18:53:17.253Z,100.00
2022-11-05T18:55:40.229Z,100.00
2022-11-05T18:58:00.732Z,100.00
2022-11-05T19:00:23.054Z,100.00
2022-11-05T19:02:45.582Z,100.00
2022-11-05T19:05:22.146Z,100.00
2022-11-05T19:07:13.347Z,100.00
2022-11-05T19:09:16.225Z,100.00
2022-11-05T19:11:21.445Z,100.00
2022-11-05T19:13:23.953Z,100.00
2022-11-05T19:15:26.002Z,100.00
2022-11-05T19:17:29.003Z,100.00
2022-11-05T19:19:31.159Z,100.00
2022-11-05T19:21:33.350Z,100.00
2022-11-05T19:23:38.926Z,100.00
2022-11-05T19:25:41.358Z,100.00
2022-11-05T19:27:43.880Z,100.00
2022-11-05T19:29:46.945Z,100.00
2022-11-05T19:31:49.733Z,100.00
2022-11-05T19:33:52.581Z,100.00
2022-11-05T19:35:54.894Z,100.00
2022-11-05T19:37:57.788Z,100.00
2022-11-05T19:40:00.364Z,100.00
2022-11-05T19:42:03.758Z,100.00
2022-11-05T19:44:06.602Z,100.00
2022-11-05T19:46:19.405Z,100.00
2022-11-05T19:48:21.925Z,100.00
2022-11-05T19:50:24.202Z,100.00
2022-11-05T19:52:28.215Z,100.00
2022-11-05T19:54:31.139Z,100.00
2022-11-05T19:56:34.410Z,100.00
2022-11-05T19:58:37.426Z,100.00
2022-11-05T20:00:39.664Z,100.00
2022-11-05T20:02:46.507Z,100.00
2022-11-05T20:04:50.734Z,100.00
2022-11-05T20:06:53.051Z,100.00
2022-11-05T20:09:20.501Z,100.00
2022-11-05T20:11:22.248Z,100.00
2022-11-05T20:13:24.525Z,100.00
2022-11-05T20:15:26.727Z,100.00
2022-11-05T20:17:29.054Z,100.00
2022-11-05T20:19:32.010Z,100.00
2022-11-05T20:21:35.167Z,100.00
2022-11-05T20:23:37.983Z,100.00
2022-11-05T20:25:42.431Z,100.00
2022-11-05T20:27:45.287Z,100.00
2022-11-05T20:29:48.280Z,100.00
2022-11-05T20:31:52.169Z,100.00
2022-11-05T20:33:55.062Z,100.00
2022-11-05T20:36:02.336Z,100.00
2022-11-05T20:38:05.339Z,100.00
2022-11-05T20:40:08.570Z,100.00
2022-11-05T20:42:11.386Z,100.00
2022-11-05T20:44:14.196Z,100.00
2022-11-05T20:46:18.214Z,100.00
2022-11-05T20:48:21.192Z,100.00
2022-11-05T20:50:23.773Z,100.00
2022-11-05T20:52:27.375Z,100.00
2022-11-05T20:54:30.476Z,100.00
2022-11-05T20:56:36.950Z,100.00
2022-11-05T20:58:40.354Z,100.00
2022-11-05T21:00:54.982Z,100.00
2022-11-05T21:02:58.146Z,100.00
2022-11-05T21:05:01.738Z,100.00
2022-11-05T21:07:04.575Z,100.00
2022-11-05T21:09:07.675Z,100.00
2022-11-05T21:11:10.662Z,100.00
2022-11-05T21:13:13.980Z,100.00
2022-11-05T21:15:20.309Z,100.00
2022-11-05T21:17:22.576Z,100.00
2022-11-05T21:19:25.604Z,100.00
2022-11-05T21:21:28.541Z,100.00
2022-11-05T21:23:30.668Z,100.00
2022-11-05T21:25:33.225Z,100.00
2022-11-05T21:27:39.934Z,100.00
2022-11-05T21:29:45.151Z,100.00
2022-11-05T21:31:47.707Z,100.00
2022-11-05T21:33:55.022Z,100.00
2022-11-05T21:35:57.807Z,100.00
2022-11-05T21:38:00.366Z,100.00
2022-11-05T21:40:02.910Z,100.00
2022-11-05T21:42:05.807Z,100.00
2022-11-05T21:44:08.365Z,100.00
2022-11-05T21:46:12.800Z,100.00
2022-11-05T21:48:15.695Z,100.00
2022-11-05T21:50:21.920Z,100.00
2022-11-05T21:52:43.269Z,100.00
2022-11-05T21:55:05.042Z,100.00
2022-11-05T21:57:32.071Z,100.00
2022-11-05T21:59:55.240Z,100.00
2022-11-05T22:02:07.315Z,100.00
2022-11-05T22:04:10.436Z,100.00
2022-11-05T22:06:12.955Z,100.00
2022-11-05T22:08:15.739Z,100.00
2022-11-05T22:10:18.373Z,100.00
2022-11-05T22:12:21.006Z,100.00
2022-11-05T22:14:23.942Z,100.00
2022-11-05T22:16:26.148Z,100.00
2022-11-05T22:18:28.512Z,100.00
2022-11-05T22:20:30.854Z,100.00
2022-11-05T22:22:33.967Z,100.00
2022-11-05T22:24:36.665Z,100.00
2022-11-05T22:26:40.824Z,100.00
2022-11-05T22:28:43.973Z,100.00
2022-11-05T22:31:01.366Z,100.00
2022-11-05T22:33:06.722Z,100.00
2022-11-05T22:35:10.003Z,100.00
2022-11-05T22:37:23.371Z,100.00
2022-11-05T22:39:27.731Z,100.00
2022-11-05T22:41:33.202Z,100.00
2022-11-05T22:43:53.848Z,100.00
2022-11-05T22:46:22.505Z,100.00
2022-11-05T22:48:45.228Z,100.00
2022-11-05T22:51:17.415Z,100.00
2022-11-05T22:53:40.623Z,100.00
2022-11-05T22:56:04.262Z,100.00
2022-11-05T22:58:26.654Z,100.00
2022-11-05T23:00:48.997Z,100.00
2022-11-05T23:03:11.472Z,100.00
2022-11-05T23:05:33.896Z,100.00
2022-11-05T23:08:15.357Z,100.00
2022-11-05T23:10:58.147Z,100.00
2022-11-05T23:13:20.470Z,100.00
2022-11-05T23:16:01.683Z,100.00
2022-11-05T23:18:42.753Z,100.00
2022-11-05T23:21:23.818Z,100.00
2022-11-05T23:24:04.492Z,100.00
2022-11-05T23:26:45.530Z,100.00
2022-11-05T23:29:07.849Z,100.00
2022-11-05T23:31:49.005Z,100.00
2022-11-05T23:34:11.337Z,100.00
2022-11-05T23:36:52.251Z,100.00
2022-11-05T23:39:14.681Z,100.00
2022-11-05T23:41:55.254Z,100.00
2022-11-05T23:44:36.419Z,100.00
2022-11-05T23:47:17.644Z,100.00
2022-11-05T23:49:39.991Z,100.00
2022-11-05T23:52:02.329Z,100.00
2022-11-05T23:54:24.656Z,100.00
2022-11-05T23:56:46.986Z,100.00
2022-11-05T23:59:09.373Z,100.00
